Time;durP1;ratioP1;P1;durP2;ratioP2;P2;SDS_P1;SDS_P2;PMS_P1;PMS_P2;Temp;Humidity;BMP_temperature;BMP_pressure;BME280_temperature;BME280_humidity;BME280_pressure;Samples;Min_cycle;Max_cycle;Signal;HPM_P1;HPM_P2
2023/07/30 00:01:11;;;;;;;4.72;2.67;;;;;;;16.84;88.13;99264.69;5046963;28;20108;-59
2023/07/30 00:03:37;;;;;;;4.20;2.90;;;;;;;16.77;88.51;99260.72;5047239;28;20112;-60
2023/07/30 00:06:02;;;;;;;3.75;2.70;;;;;;;16.80;88.86;99269.28;5047130;28;20035;-59
2023/07/30 00:08:28;;;;;;;5.22;2.95;;;;;;;16.76;89.20;99265.13;5047375;28;20088;-59
2023/07/30 00:10:56;;;;;;;5.63;3.15;;;;;;;16.83;89.08;99271.75;5047225;28;20025;-60
2023/07/30 00:13:21;;;;;;;6.65;2.63;;;;;;;16.85;88.32;99275.09;5047033;28;20045;-60
2023/07/30 00:15:47;;;;;;;4.68;2.85;;;;;;;16.84;88.08;99270.81;5047155;28;20052;-59
2023/07/30 00:18:12;;;;;;;4.18;2.42;;;;;;;16.82;88.42;99270.03;5047214;28;20075;-61
2023/07/30 00:20:38;;;;;;;3.55;2.05;;;;;;;16.81;88.64;99278.81;5047006;28;20032;-59
2023/07/30 00:23:03;;;;;;;3.60;2.35;;;;;;;16.82;88.43;99274.44;5047185;28;20021;-60
2023/07/30 00:25:28;;;;;;;3.28;1.77;;;;;;;16.83;88.24;99265.63;5046541;28;20017;-59
2023/07/30 00:27:54;;;;;;;2.60;1.83;;;;;;;16.79;88.59;99267.56;5046821;28;20156;-59
2023/07/30 00:30:19;;;;;;;10.23;2.10;;;;;;;16.80;88.96;99263.19;5046646;28;20032;-58
2023/07/30 00:32:45;;;;;;;2.28;1.65;;;;;;;16.76;89.29;99264.28;5046955;28;20090;-60
2023/07/30 00:35:10;;;;;;;11.20;2.60;;;;;;;16.76;90.24;99264.28;5046362;28;20056;-59
2023/07/30 00:37:36;;;;;;;4.22;1.92;;;;;;;16.78;90.13;99263.25;5046612;28;20048;-58
2023/07/30 00:40:03;;;;;;;3.58;2.05;;;;;;;16.75;90.43;99254.72;5045976;28;20381;-59
2023/07/30 00:42:29;;;;;;;3.75;2.40;;;;;;;16.73;90.83;99249.56;5046385;28;20025;-59
2023/07/30 00:44:54;;;;;;;5.80;1.70;;;;;;;16.78;90.64;99260.66;5046411;28;20030;-59
2023/07/30 00:47:21;;;;;;;3.25;1.88;;;;;;;16.79;90.51;99257.09;5046660;28;20076;-59
2023/07/30 00:49:47;;;;;;;4.43;2.20;;;;;;;16.76;90.56;99253.81;5028816;28;20037;-59
2023/07/30 00:52:12;;;;;;;4.45;2.03;;;;;;;16.76;91.10;99253.81;5046564;28;20085;-60
2023/07/30 00:54:39;;;;;;;3.67;2.03;;;;;;;16.72;91.54;99253.94;5046428;28;20026;-59
2023/07/30 00:57:06;;;;;;;9.05;2.72;;;;;;;16.75;91.47;99258.19;5046414;28;20040;-59
2023/07/30 00:59:32;;;;;;;9.32;2.33;;;;;;;16.75;91.91;99262.56;5046354;28;20040;-58
2023/07/30 01:01:59;;;;;;;3.17;1.77;;;;;;;16.71;92.51;99254.03;5046159;28;20108;-59
2023/07/30 01:04:25;;;;;;;2.47;1.80;;;;;;;16.69;92.91;99253.28;5044897;28;20033;-59
2023/07/30 01:06:51;;;;;;;5.45;1.92;;;;;;;16.70;92.56;99245.34;5045980;28;20029;-60
2023/07/30 01:09:16;;;;;;;2.60;1.55;;;;;;;16.71;92.07;99246.16;5046077;28;20033;-60
2023/07/30 01:11:44;;;;;;;5.18;1.52;;;;;;;16.72;92.20;99255.72;5045944;28;20048;-59
2023/07/30 01:14:09;;;;;;;5.20;1.67;;;;;;;16.63;92.53;99257.03;5045729;28;20072;-60
2023/07/30 01:16:35;;;;;;;3.33;1.70;;;;;;;16.58;93.05;99251.22;5045762;28;20025;-61
2023/07/30 01:19:04;;;;;;;2.63;1.30;;;;;;;16.56;92.66;99250.44;5045673;28;20523;-60
2023/07/30 01:21:37;;;;;;;2.40;1.50;;;;;;;16.50;92.77;99254.25;5046092;28;20028;-59
2023/07/30 01:24:03;;;;;;;5.38;2.30;;;;;;;16.47;93.20;99249.13;5045838;28;20029;-59
2023/07/30 01:26:34;;;;;;;2.13;1.38;;;;;;;16.45;93.44;99258.88;5045786;28;20192;-60
2023/07/30 01:29:03;;;;;;;5.97;1.63;;;;;;;16.43;93.26;99261.56;5045706;28;20033;-59
2023/07/30 01:31:33;;;;;;;2.75;1.17;;;;;;;16.41;93.41;99252.06;5045622;28;20033;-59
2023/07/30 01:34:00;;;;;;;4.97;1.42;;;;;;;16.40;93.27;99260.88;5045439;28;20395;-60
2023/07/30 01:36:28;;;;;;;1.63;1.10;;;;;;;16.37;93.96;99259.25;5028046;28;20053;-59
2023/07/30 01:38:54;;;;;;;4.57;1.30;;;;;;;16.32;93.98;99249.03;5045680;28;20029;-60
2023/07/30 01:41:19;;;;;;;1.73;1.20;;;;;;;16.29;94.14;99249.19;5045299;28;20047;-59
2023/07/30 01:43:45;;;;;;;3.38;1.40;;;;;;;16.26;94.01;99249.34;5045368;28;20462;-59
2023/07/30 01:46:10;;;;;;;1.67;1.27;;;;;;;16.27;93.94;99253.63;5045312;28;20029;-59
2023/07/30 01:48:35;;;;;;;2.30;1.45;;;;;;;16.27;93.85;99248.41;5045473;28;20071;-60
2023/07/30 01:51:01;;;;;;;2.38;0.90;;;;;;;16.30;93.90;99263.09;5045369;28;20028;-59
2023/07/30 01:53:26;;;;;;;2.85;1.25;;;;;;;16.29;94.03;99261.41;5045074;28;20026;-60
2023/07/30 01:55:52;;;;;;;1.42;1.13;;;;;;;16.29;94.52;99261.41;5045301;28;20017;-58
2023/07/30 01:58:17;;;;;;;2.83;1.45;;;;;;;16.29;94.54;99262.28;5045028;28;20022;-58
2023/07/30 02:00:44;;;;;;;2.88;1.70;;;;;;;16.32;93.92;99256.03;5045157;28;20063;-58
2023/07/30 02:03:09;;;;;;;3.75;1.80;;;;;;;16.31;94.67;99260.41;5027337;28;20021;-60
2023/07/30 02:05:34;;;;;;;4.32;2.05;;;;;;;16.35;94.79;99272.44;5045140;28;20089;-59
2023/07/30 02:08:00;;;;;;;2.97;1.85;;;;;;;16.41;94.63;99268.66;5044839;28;20030;-59
2023/07/30 02:10:25;;;;;;;5.40;2.17;;;;;;;16.41;94.96;99270.41;5044740;28;20017;-59
2023/07/30 02:12:51;;;;;;;7.18;2.65;;;;;;;16.39;94.86;99262.63;5045224;28;20025;-60
2023/07/30 02:15:16;;;;;;;3.40;2.00;;;;;;;16.43;95.42;99274.66;5044742;28;20084;-58
2023/07/30 02:17:42;;;;;;;4.20;2.58;;;;;;;16.44;95.36;99271.09;5044929;28;20029;-58
2023/07/30 02:20:10;;;;;;;7.95;2.42;;;;;;;16.44;95.89;99265.88;5045117;28;20022;-59
2023/07/30 02:22:35;;;;;;;9.20;2.50;;;;;;;16.42;96.36;99265.09;5045217;28;20052;-58
2023/07/30 02:25:01;;;;;;;6.05;2.83;;;;;;;16.46;96.29;99268.41;5044921;28;20031;-58
2023/07/30 02:27:26;;;;;;;5.18;2.28;;;;;;;16.47;95.99;99265.72;5044963;28;20021;-58
2023/07/30 02:29:51;;;;;;;3.55;2.28;;;;;;;16.50;96.11;99274.34;5044707;28;20028;-59
2023/07/30 02:32:17;;;;;;;3.90;2.45;;;;;;;16.49;96.83;99257.78;5045072;28;20541;-58
2023/07/30 02:34:42;;;;;;;4.55;2.88;;;;;;;16.50;96.95;99269.97;5044915;28;20108;-57
2023/07/30 02:37:07;;;;;;;7.97;2.92;;;;;;;16.49;96.20;99273.50;5044822;28;20442;-59
2023/07/30 02:39:33;;;;;;;4.82;2.97;;;;;;;16.44;96.61;99270.25;5044779;28;20101;-59
2023/07/30 02:41:58;;;;;;;4.43;2.80;;;;;;;16.52;96.77;99282.97;5044782;28;20029;-59
2023/07/30 02:44:24;;;;;;;3.25;2.50;;;;;;;16.49;96.91;99286.59;5044562;28;20075;-59
2023/07/30 02:46:49;;;;;;;5.28;2.78;;;;;;;16.47;97.20;99277.94;5044606;28;20013;-59
2023/07/30 02:49:15;;;;;;;5.05;2.80;;;;;;;16.50;96.82;99288.31;5044624;28;20033;-58
2023/07/30 02:51:40;;;;;;;4.13;2.45;;;;;;;16.47;97.08;99289.28;5044697;28;20021;-59
2023/07/30 02:54:07;;;;;;;3.60;2.20;;;;;;;16.54;96.61;99295.06;5043249;28;20081;-59
2023/07/30 02:56:33;;;;;;;3.38;2.75;;;;;;;16.55;96.81;99288.06;5044548;28;20034;-58
2023/07/30 02:58:59;;;;;;;2.85;1.98;;;;;;;16.53;96.66;99285.53;5044790;28;20053;-58
2023/07/30 03:01:24;;;;;;;2.33;1.70;;;;;;;16.51;96.48;99295.22;5044666;28;20108;-59
2023/07/30 03:03:50;;;;;;;2.25;1.63;;;;;;;16.55;95.70;99288.06;5045452;28;20449;-59
2023/07/30 03:06:16;;;;;;;3.75;2.10;;;;;;;16.52;95.59;99289.03;5048340;28;20363;-60
2023/07/30 03:08:43;;;;;;;2.35;1.85;;;;;;;16.48;96.02;99283.09;5048562;28;20022;-59
2023/07/30 03:11:08;;;;;;;3.35;1.83;;;;;;;16.51;96.08;99292.59;5048637;28;20028;-59
2023/07/30 03:13:33;;;;;;;8.05;2.22;;;;;;;16.52;95.55;99290.84;5046851;28;20037;-59
2023/07/30 03:15:59;;;;;;;2.05;1.50;;;;;;;16.44;95.62;99292.06;5048154;28;20038;-59
2023/07/30 03:18:24;;;;;;;2.53;1.35;;;;;;;16.46;95.54;99297.22;5047999;28;20022;-59
2023/07/30 03:20:50;;;;;;;5.35;2.00;;;;;;;16.34;95.83;99275.97;5048191;28;20017;-59
2023/07/30 03:23:15;;;;;;;6.38;2.15;;;;;;;16.43;95.68;99297.38;5048214;28;20167;-59
2023/07/30 03:25:40;;;;;;;2.80;2.13;;;;;;;16.43;95.76;99300.00;5048066;28;20052;-58
2023/07/30 03:28:06;;;;;;;2.75;1.55;;;;;;;16.42;95.70;99306.16;5048253;28;20482;-58
2023/07/30 03:30:31;;;;;;;2.47;1.38;;;;;;;16.43;95.44;99305.22;5047919;28;20025;-59
2023/07/30 03:32:57;;;;;;;2.60;1.90;;;;;;;16.43;95.67;99302.63;5048101;28;20093;-58
2023/07/30 03:35:22;;;;;;;2.63;1.73;;;;;;;16.41;95.54;99307.94;5047764;28;20033;-59
2023/07/30 03:37:47;;;;;;;3.42;1.77;;;;;;;16.42;95.75;99314.03;5047864;28;20030;-58
2023/07/30 03:40:13;;;;;;;5.53;1.98;;;;;;;16.32;95.65;99304.03;5047715;28;20033;-59
2023/07/30 03:42:38;;;;;;;6.20;1.55;;;;;;;16.40;95.58;99308.00;5047703;28;20021;-60
2023/07/30 03:45:04;;;;;;;4.38;2.33;;;;;;;16.40;95.78;99311.50;5047680;28;20052;-60
2023/07/30 03:47:30;;;;;;;4.40;1.77;;;;;;;16.35;95.67;99316.97;5046472;28;20102;-58
2023/07/30 03:49:55;;;;;;;2.45;1.67;;;;;;;16.35;95.85;99318.72;5047440;28;20376;-59
2023/07/30 03:52:20;;;;;;;8.52;2.17;;;;;;;16.34;95.90;99322.28;5047584;28;20108;-59
2023/07/30 03:54:46;;;;;;;4.30;2.10;;;;;;;16.34;95.77;99320.47;5047805;28;20036;-60
2023/07/30 03:57:12;;;;;;;2.20;1.73;;;;;;;16.32;96.11;99317.13;5029534;28;20036;-57
2023/07/30 03:59:37;;;;;;;2.72;1.67;;;;;;;16.32;96.02;99313.63;5047646;28;20080;-60
2023/07/30 04:02:04;;;;;;;1.92;1.63;;;;;;;16.21;95.79;99301.09;5047170;28;20082;-58
2023/07/30 04:04:29;;;;;;;7.45;1.67;;;;;;;16.32;96.05;99324.97;5047235;28;20492;-59
2023/07/30 04:06:55;;;;;;;4.40;1.70;;;;;;;16.35;96.15;99327.44;5047379;28;20081;-59
2023/07/30 04:09:20;;;;;;;3.65;2.15;;;;;;;16.40;95.81;99323.72;5047417;28;20021;-59
2023/07/30 04:11:46;;;;;;;4.47;2.08;;;;;;;16.43;96.03;99326.19;5047322;28;20021;-59
2023/07/30 04:14:11;;;;;;;4.70;2.20;;;;;;;16.45;95.55;99330.41;5047143;28;20053;-59
2023/07/30 04:16:36;;;;;;;4.70;1.77;;;;;;;16.45;95.85;99326.97;5046826;28;20025;-60
2023/07/30 04:19:02;;;;;;;4.88;1.98;;;;;;;16.41;95.68;99325.41;5046984;28;20026;-59
2023/07/30 04:21:27;;;;;;;2.88;2.03;;;;;;;16.44;95.35;99328.72;5047245;28;20030;-59
2023/07/30 04:23:53;;;;;;;6.15;2.17;;;;;;;16.45;95.37;99330.41;5047069;28;20017;-59
2023/07/30 04:26:18;;;;;;;8.02;2.13;;;;;;;16.45;94.96;99338.28;5046724;28;20293;-58
2023/07/30 04:28:43;;;;;;;3.65;2.40;;;;;;;16.43;94.97;99337.53;5045617;28;20022;-58
2023/07/30 04:31:09;;;;;;;2.10;1.67;;;;;;;16.34;94.94;99317.03;5046827;28;20508;-59
2023/07/30 04:33:34;;;;;;;2.63;1.63;;;;;;;16.44;95.09;99328.72;5047035;28;20081;-59
2023/07/30 04:36:00;;;;;;;2.95;2.17;;;;;;;16.44;95.31;99323.50;5046822;28;20494;-59
2023/07/30 04:38:25;;;;;;;3.45;2.33;;;;;;;16.45;95.13;99330.41;5046589;28;20036;-59
2023/07/30 04:40:51;;;;;;;6.18;2.55;;;;;;;16.47;95.01;99323.34;5046749;28;20445;-59
2023/07/30 04:43:16;;;;;;;3.53;1.70;;;;;;;16.47;95.08;99322.47;5046721;28;20029;-59
2023/07/30 04:45:42;;;;;;;5.32;2.42;;;;;;;16.58;95.09;99333.25;5046437;28;20022;-59
2023/07/30 04:48:08;;;;;;;9.02;2.17;;;;;;;16.56;94.58;99326.41;5028721;28;20017;-59
2023/07/30 04:50:33;;;;;;;6.15;2.38;;;;;;;16.57;94.11;99342.06;5046469;28;20044;-57
2023/07/30 04:52:59;;;;;;;6.85;2.30;;;;;;;16.47;93.83;99333.81;5046337;28;20032;-57
2023/07/30 04:55:24;;;;;;;3.92;1.65;;;;;;;16.46;94.10;99328.66;5046819;28;20033;-59
2023/07/30 04:57:49;;;;;;;2.30;1.90;;;;;;;16.43;94.02;99327.03;5046450;28;20017;-58
2023/07/30 05:00:15;;;;;;;2.65;1.92;;;;;;;16.44;94.25;99331.34;5046372;28;20029;-58
2023/07/30 05:02:41;;;;;;;7.13;2.70;;;;;;;16.46;94.05;99336.50;5046323;28;20029;-58
2023/07/30 05:05:06;;;;;;;8.93;2.60;;;;;;;16.43;93.96;99316.56;5046064;28;20059;-59
2023/07/30 05:07:32;;;;;;;7.47;2.45;;;;;;;16.60;94.60;99325.31;5046367;28;20028;-59
2023/07/30 05:09:57;;;;;;;2.97;2.00;;;;;;;16.74;94.69;99332.50;5046086;28;20036;-58
2023/07/30 05:12:23;;;;;;;4.10;2.38;;;;;;;16.95;94.86;99337.53;5045991;28;20438;-60
2023/07/30 05:14:48;;;;;;;8.57;2.78;;;;;;;17.11;94.37;99334.16;5045824;28;20053;-58
2023/07/30 05:17:13;;;;;;;4.53;2.55;;;;;;;17.15;94.38;99314.69;5045814;28;20022;-59
2023/07/30 05:19:39;;;;;;;3.25;2.25;;;;;;;17.47;nan;99333.09;5046180;28;20032;-58
2023/07/30 05:22:05;;;;;;;5.57;2.42;;;;;;;17.48;92.67;99321.66;5045938;28;20033;-59
2023/07/30 05:24:31;;;;;;;3.13;2.38;;;;;;;17.64;91.71;99341.81;5046199;28;20055;-58
2023/07/30 05:26:56;;;;;;;7.10;2.58;;;;;;;17.56;90.37;99327.34;5045170;28;20378;-58
2023/07/30 05:29:22;;;;;;;4.97;2.60;;;;;;;17.78;89.64;99344.50;5045824;28;20024;-58
2023/07/30 05:31:47;;;;;;;7.30;2.22;;;;;;;17.73;87.05;99348.34;5045501;28;20028;-59
2023/07/30 05:34:12;;;;;;;8.05;2.95;;;;;;;17.64;87.04;99349.69;5046019;28;20071;-58
2023/07/30 05:36:38;;;;;;;3.78;3.17;;;;;;;17.65;87.85;99346.13;5045521;28;20086;-57
2023/07/30 05:39:03;;;;;;;10.00;2.53;;;;;;;17.74;87.57;99348.25;5045671;28;20026;-57
2023/07/30 05:41:29;;;;;;;4.30;2.65;;;;;;;17.75;87.68;99347.31;5045563;28;20037;-59
2023/07/30 05:43:54;;;;;;;2.47;2.28;;;;;;;17.68;86.25;99346.78;5045664;28;20028;-59
2023/07/30 05:46:19;;;;;;;2.95;2.28;;;;;;;17.60;86.23;99351.66;5045498;28;20025;-59
2023/07/30 05:48:45;;;;;;;2.25;1.90;;;;;;;17.57;86.39;99352.63;5045381;28;20120;-59
2023/07/30 05:51:10;;;;;;;3.13;2.30;;;;;;;17.51;85.71;99350.34;5045531;28;20056;-59
2023/07/30 05:53:36;;;;;;;3.05;2.40;;;;;;;17.45;85.82;99348.06;5045772;28;20385;-58
2023/07/30 05:56:01;;;;;;;7.38;2.42;;;;;;;17.50;85.82;99353.06;5045283;28;20029;-58
2023/07/30 05:58:26;;;;;;;3.42;2.40;;;;;;;17.51;85.83;99355.59;5045229;28;20036;-57
2023/07/30 06:00:52;;;;;;;5.35;2.28;;;;;;;17.57;86.41;99359.69;5045322;28;20029;-60
2023/07/30 06:03:18;;;;;;;6.60;2.60;;;;;;;17.63;86.08;99361.13;5045394;28;20057;-59
2023/07/30 06:05:43;;;;;;;4.38;2.00;;;;;;;17.74;86.43;99361.38;5045334;28;20043;-58
2023/07/30 06:08:09;;;;;;;5.93;2.55;;;;;;;17.92;86.29;99358.66;5045225;28;20025;-56
2023/07/30 06:10:38;;;;;;;4.13;1.92;;;;;;;18.16;85.32;99371.38;5045402;28;20026;-59
2023/07/30 06:13:04;;;;;;;8.95;2.15;;;;;;;18.31;84.94;99364.38;5045137;28;20025;-59
2023/07/30 06:15:30;;;;;;;5.45;2.42;;;;;;;18.52;85.47;99367.53;5045023;28;20052;-59
2023/07/30 06:17:55;;;;;;;4.10;2.30;;;;;;;18.82;85.05;99352.66;5045063;28;20029;-59
2023/07/30 06:20:21;;;;;;;6.78;2.95;;;;;;;19.33;85.21;99356.66;5045114;28;20064;-59
2023/07/30 06:22:46;;;;;;;7.18;2.50;;;;;;;19.76;85.38;99339.09;5045122;28;20030;-58
2023/07/30 06:25:12;;;;;;;2.95;2.20;;;;;;;20.27;80.58;99362.16;5044778;28;20385;-59
2023/07/30 06:27:37;;;;;;;3.67;2.58;;;;;;;20.56;76.90;99361.16;5044963;28;20043;-59
2023/07/30 06:30:03;;;;;;;5.85;1.88;;;;;;;20.87;74.04;99358.25;5044791;28;20048;-58
2023/07/30 06:32:28;;;;;;;7.53;2.08;;;;;;;21.32;75.72;99351.69;5045033;28;20029;-59
2023/07/30 06:34:54;;;;;;;4.78;2.65;;;;;;;21.81;74.42;99368.50;5044865;28;20027;-59
2023/07/30 06:37:19;;;;;;;3.65;1.95;;;;;;;21.79;70.05;99368.59;5044932;28;20048;-59
2023/07/30 06:39:45;;;;;;;2.10;1.85;;;;;;;21.49;67.86;99364.53;5048726;28;20028;-60
2023/07/30 06:42:10;;;;;;;3.28;1.83;;;;;;;21.63;69.97;99375.94;5049225;28;20021;-60
2023/07/30 06:44:36;;;;;;;5.18;1.27;;;;;;;22.00;67.60;99370.63;5048811;28;20037;-59
2023/07/30 06:47:01;;;;;;;2.92;2.00;;;;;;;22.54;67.50;99373.72;5048887;28;20029;-59
2023/07/30 06:49:26;;;;;;;3.97;2.00;;;;;;;23.07;66.28;99376.03;5048668;28;20025;-59
2023/07/30 06:51:52;;;;;;;1.60;1.40;;;;;;;23.73;65.33;99369.97;5048638;28;20026;-58
2023/07/30 06:54:17;;;;;;;5.32;1.63;;;;;;;23.92;63.13;99371.13;5048640;28;20022;-59
2023/07/30 06:56:43;;;;;;;3.42;1.42;;;;;;;24.20;63.22;99373.34;5030724;28;20029;-59
2023/07/30 06:59:08;;;;;;;2.10;1.33;;;;;;;24.52;64.15;99377.78;5048618;28;20033;-58
2023/07/30 07:01:33;;;;;;;3.08;1.88;;;;;;;24.54;61.73;99382.97;5048415;28;20446;-58
2023/07/30 07:03:59;;;;;;;2.78;0.90;;;;;;;24.11;58.83;99374.91;5048324;28;20021;-57
2023/07/30 07:06:24;;;;;;;4.45;1.08;;;;;;;23.41;57.69;99381.34;5048185;28;20167;-57
2023/07/30 07:08:49;;;;;;;5.43;1.42;;;;;;;22.62;57.74;99393.50;5048371;28;20029;-58
2023/07/30 07:11:15;;;;;;;1.80;1.10;;;;;;;21.80;58.38;99393.22;5048464;28;20025;-59
2023/07/30 07:13:40;;;;;;;2.72;1.42;;;;;;;21.07;60.30;99391.19;5048371;28;20056;-58
2023/07/30 07:16:06;;;;;;;1.73;1.13;;;;;;;20.48;62.05;99390.69;5048139;28;20025;-59
2023/07/30 07:18:31;;;;;;;5.15;1.58;;;;;;;20.05;63.03;99395.19;5048181;28;20099;-59
2023/07/30 07:20:57;;;;;;;1.40;1.05;;;;;;;19.57;64.58;99396.41;5048016;28;20095;-59
2023/07/30 07:23:22;;;;;;;2.40;1.27;;;;;;;19.41;66.72;99393.03;5048113;28;20080;-58
2023/07/30 07:25:47;;;;;;;2.60;1.48;;;;;;;19.55;67.66;99394.81;5047786;28;20021;-59
2023/07/30 07:28:13;;;;;;;3.78;2.08;;;;;;;19.91;67.81;99401.31;5047972;28;20044;-59
2023/07/30 07:30:38;;;;;;;6.82;2.17;;;;;;;20.19;66.63;99389.03;5047917;28;20025;-59
2023/07/30 07:33:05;;;;;;;2.30;1.50;;;;;;;20.30;65.76;99398.84;5047887;28;20093;-58
2023/07/30 07:35:31;;;;;;;3.80;1.50;;;;;;;20.28;66.05;99395.50;5047941;28;20025;-60
2023/07/30 07:37:57;;;;;;;2.80;1.60;;;;;;;20.91;67.12;99396.66;5047771;28;20044;-57
2023/07/30 07:40:22;;;;;;;2.60;1.40;;;;;;;21.25;64.64;99399.63;5047564;28;20541;-59
2023/07/30 07:42:48;;;;;;;3.90;1.88;;;;;;;21.18;64.04;99398.38;5047800;28;20018;-60
2023/07/30 07:45:13;;;;;;;4.97;2.40;;;;;;;20.91;62.92;99396.66;5047284;28;20032;-60
2023/07/30 07:47:38;;;;;;;4.63;1.73;;;;;;;20.61;63.66;99403.03;5047927;28;20022;-58
2023/07/30 07:50:05;;;;;;;2.20;1.27;;;;;;;20.36;63.93;99402.03;5046043;28;20025;-58
2023/07/30 07:52:31;;;;;;;2.88;1.63;;;;;;;20.10;64.63;99407.22;5047310;28;20089;-56
2023/07/30 07:54:56;;;;;;;2.95;1.55;;;;;;;20.43;65.21;99403.34;5047133;28;20132;-59
2023/07/30 07:57:21;;;;;;;3.10;1.40;;;;;;;21.36;64.36;99408.63;5047004;28;20022;-60
2023/07/30 07:59:47;;;;;;;5.95;1.55;;;;;;;22.31;61.36;99401.03;5047369;28;20029;-61
2023/07/30 08:02:13;;;;;;;3.92;1.80;;;;;;;23.35;60.21;99410.91;5047322;28;20088;-59
2023/07/30 08:04:38;;;;;;;1.90;1.08;;;;;;;24.06;58.69;99406.28;5047119;28;20093;-60
2023/07/30 08:07:04;;;;;;;3.85;1.67;;;;;;;24.50;57.57;99401.78;5047366;28;20088;-59
2023/07/30 08:09:31;;;;;;;1.85;1.50;;;;;;;24.57;53.13;99403.94;5047121;28;20025;-60
2023/07/30 08:11:56;;;;;;;1.27;0.85;;;;;;;23.84;52.22;99394.75;5047128;28;20565;-60
2023/07/30 08:14:21;;;;;;;4.38;1.17;;;;;;;23.07;53.91;99397.19;5047164;28;20077;-60
2023/07/30 08:16:47;;;;;;;3.10;1.10;;;;;;;22.71;55.51;99399.88;5046782;28;20089;-59
2023/07/30 08:19:12;;;;;;;1.40;1.20;;;;;;;23.23;56.55;99397.66;5047335;28;20029;-60
2023/07/30 08:21:38;;;;;;;1.33;1.13;;;;;;;23.74;55.68;99405.25;5047272;28;20025;-60
2023/07/30 08:24:03;;;;;;;1.80;1.20;;;;;;;23.61;53.17;99406.22;5047153;28;20466;-61
2023/07/30 08:26:29;;;;;;;3.70;1.13;;;;;;;22.95;53.94;99415.72;5046896;28;20021;-60
2023/07/30 08:28:55;;;;;;;1.42;0.85;;;;;;;22.22;54.62;99413.16;5046805;28;20508;-59
2023/07/30 08:31:20;;;;;;;1.27;1.00;;;;;;;;;;5046842;28;20485;-59
2023/07/30 08:33:45;;;;;;;3.93;1.13;;;;;;;22.30;57.30;99410.75;5046642;28;20051;-60
2023/07/30 08:36:11;;;;;;;5.13;1.63;;;;;;;22.95;56.00;99409.56;5046752;28;20254;-60
2023/07/30 08:38:36;;;;;;;1.23;0.90;;;;;;;22.82;54.97;99412.28;5046475;28;20033;-59
2023/07/30 08:41:01;;;;;;;4.40;1.45;;;;;;;22.20;55.60;99407.97;5046636;28;20021;-59
2023/07/30 08:43:27;;;;;;;4.13;1.05;;;;;;;21.65;56.81;99411.81;5046563;28;20021;-60
2023/07/30 08:45:52;;;;;;;1.73;1.25;;;;;;;21.35;57.56;99414.81;5046551;28;20493;-59
2023/07/30 08:48:18;;;;;;;7.53;1.48;;;;;;;20.98;58.57;99407.66;5046724;28;20030;-60
2023/07/30 08:50:44;;;;;;;2.58;1.10;;;;;;;20.67;59.25;99415.84;5046259;28;20036;-59
2023/07/30 08:53:10;;;;;;;5.82;1.17;;;;;;;20.21;60.77;99417.06;5046394;28;20079;-59
2023/07/30 08:55:37;;;;;;;1.27;1.17;;;;;;;20.05;62.04;99418.03;5046264;28;20377;-60
2023/07/30 08:58:04;;;;;;;5.97;1.95;;;;;;;19.87;62.46;99414.78;5046541;28;20107;-59
2023/07/30 09:00:33;;;;;;;7.43;1.55;;;;;;;19.80;63.13;99422.22;5046111;28;20026;-59
2023/07/30 09:03:00;;;;;;;5.72;1.70;;;;;;;19.74;63.39;99414.72;5045440;28;20029;-59
2023/07/30 09:05:29;;;;;;;2.88;1.35;;;;;;;19.75;63.30;99409.34;5045891;28;20029;-63
2023/07/30 09:07:54;;;;;;;1.58;1.08;;;;;;;19.61;62.87;99409.38;5046074;28;20021;-59
2023/07/30 09:10:20;;;;;;;3.13;1.33;;;;;;;19.41;63.34;99425.44;5046092;28;20028;-58
2023/07/30 09:12:45;;;;;;;4.60;1.40;;;;;;;19.20;63.98;99427.63;5045828;28;20089;-59
2023/07/30 09:15:11;;;;;;;4.97;1.55;;;;;;;19.00;64.47;99423.50;5044316;28;20045;-59
2023/07/30 09:17:36;;;;;;;2.17;1.50;;;;;;;18.82;65.30;99435.03;5046321;28;20045;-60
2023/07/30 09:20:03;;;;;;;6.57;1.38;;;;;;;18.62;66.14;99435.34;5046069;28;20017;-60
2023/07/30 09:22:33;;;;;;;2.00;1.52;;;;;;;18.53;67.09;99439.38;5045842;28;20378;-60
2023/07/30 09:25:02;;;;;;;1.83;1.63;;;;;;;18.51;67.30;99441.22;5045956;28;20025;-60
2023/07/30 09:27:28;;;;;;;2.40;1.40;;;;;;;18.58;67.03;99442.56;5045917;28;20021;-60
2023/07/30 09:29:54;;;;;;;8.13;1.25;;;;;;;18.66;67.07;99436.84;5027976;28;20029;-60
2023/07/30 09:32:20;;;;;;;3.60;1.77;;;;;;;18.69;67.17;99432.25;5045688;28;20033;-64
2023/07/30 09:34:46;;;;;;;1.88;1.30;;;;;;;18.79;66.80;99448.34;5027765;28;20025;-60
2023/07/30 09:37:12;;;;;;;3.08;1.50;;;;;;;18.92;67.16;99437.13;5044305;28;20048;-60
2023/07/30 09:39:37;;;;;;;2.45;1.35;;;;;;;19.18;66.12;99443.50;5045427;28;20191;-61
2023/07/30 09:42:03;;;;;;;5.00;1.48;;;;;;;19.57;64.60;99438.50;5045505;28;20084;-61
2023/07/30 09:44:32;;;;;;;5.13;1.58;;;;;;;19.83;63.70;99440.47;5045379;28;20029;-61
2023/07/30 09:46:57;;;;;;;4.35;1.40;;;;;;;19.85;63.34;99440.38;5045541;28;20076;-60
2023/07/30 09:49:23;;;;;;;5.25;1.40;;;;;;;19.94;62.35;99450.31;5045720;28;20036;-60
2023/07/30 09:51:50;;;;;;;5.60;0.90;;;;;;;20.39;60.97;99450.13;5045125;28;20086;-60
2023/07/30 09:54:15;;;;;;;5.72;1.52;;;;;;;20.41;60.34;99445.63;5045261;28;20033;-60
2023/07/30 09:56:42;;;;;;;4.65;1.85;;;;;;;20.16;59.94;99447.19;5045403;28;20021;-61
2023/07/30 09:59:08;;;;;;;1.15;0.75;;;;;;;19.87;60.81;99443.75;5027527;28;20052;-61
2023/07/30 10:01:41;;;;;;;6.05;1.88;;;;;;;19.81;61.00;99450.22;5045059;28;20030;-62
2023/07/30 10:04:10;;;;;;;3.33;1.60;;;;;;;19.74;60.81;99454.22;5045512;28;20485;-61
2023/07/30 10:06:59;;;;;;;2.13;1.45;;;;;;;20.31;61.02;99458.53;5045195;28;20044;-60
2023/07/30 10:09:30;;;;;;;2.80;1.10;;;;;;;21.28;60.01;99446.06;5028240;28;20493;-61
2023/07/30 10:11:55;;;;;;;3.72;1.35;;;;;;;22.47;55.79;99449.19;5045016;28;20033;-62
2023/07/30 10:14:25;;;;;;;5.57;1.88;;;;;;;22.51;54.07;99455.09;5044763;28;20053;-60
2023/07/30 10:16:57;;;;;;;4.93;0.80;;;;;;;21.96;53.86;99451.09;5045142;28;20018;-62
2023/07/30 10:19:23;;;;;;;;;;;;;;;21.84;55.30;99459.91;5045510;28;20029;-60
2023/07/30 10:21:48;;;;;;;3.22;1.20;;;;;;;22.36;55.11;99454.44;5045114;28;19909;-61
2023/07/30 10:24:13;;;;;;;2.20;1.52;;;;;;;23.28;53.13;99456.41;5044875;28;20461;-60
2023/07/30 10:26:39;;;;;;;2.80;1.20;;;;;;;23.26;52.65;99455.69;5044856;28;20052;-61
2023/07/30 10:29:12;;;;;;;2.97;1.00;;;;;;;23.90;51.45;99463.16;5044821;28;20059;-60
2023/07/30 10:31:42;;;;;;;1.83;1.10;;;;;;;25.04;49.73;99453.13;5044894;28;20029;-61
2023/07/30 10:34:10;;;;;;;0.88;0.60;;;;;;;25.39;47.93;99451.94;5044766;28;20025;-60
2023/07/30 10:36:46;;;;;;;1.10;0.90;;;;;;;25.41;46.86;99447.34;5044764;28;20454;-61
2023/07/30 10:39:27;;;;;;;4.68;0.80;;;;;;;25.55;47.08;99447.94;5044888;28;20101;-61
2023/07/30 10:41:55;;;;;;;1.23;0.70;;;;;;;25.36;45.26;99455.72;5045062;28;20030;-60
2023/07/30 10:44:26;;;;;;;2.92;1.02;;;;;;;25.34;46.83;99446.16;5044758;28;20033;-60
2023/07/30 10:46:56;;;;;;;3.67;1.10;;;;;;;26.06;46.75;99439.97;5044658;28;20041;-61
2023/07/30 10:49:22;;;;;;;2.83;0.90;;;;;;;25.95;44.64;99446.25;5044809;28;20098;-60
2023/07/30 10:51:47;;;;;;;1.20;0.88;;;;;;;25.63;44.15;99448.13;5044576;28;20029;-60
2023/07/30 10:54:14;;;;;;;6.20;1.10;;;;;;;25.33;45.66;99444.50;5044711;28;20025;-60
2023/07/30 10:56:41;;;;;;;0.70;0.60;;;;;;;25.52;46.18;99432.25;5044996;28;20048;-60
2023/07/30 10:59:07;;;;;;;1.65;0.98;;;;;;;25.52;45.74;99441.09;5044721;28;20025;-62
2023/07/30 11:01:38;;;;;;;7.00;1.13;;;;;;;25.34;45.34;99440.84;5044367;28;20033;-61
2023/07/30 11:04:10;;;;;;;0.98;0.63;;;;;;;24.73;45.41;99440.59;5044887;28;20076;-61
2023/07/30 11:06:37;;;;;;;3.90;1.02;;;;;;;24.64;46.03;99447.53;5044573;28;20037;-62
2023/07/30 11:09:03;;;;;;;6.88;1.02;;;;;;;24.37;46.40;99444.41;5044804;28;20088;-60
2023/07/30 11:11:29;;;;;;;1.73;0.75;;;;;;;23.94;47.48;99442.56;5044603;28;20025;-61
2023/07/30 11:13:55;;;;;;;3.80;1.20;;;;;;;23.48;48.76;99443.44;5044531;28;20060;-61
2023/07/30 11:16:20;;;;;;;4.70;1.20;;;;;;;23.02;50.16;99448.66;5044600;28;20017;-61
2023/07/30 11:18:47;;;;;;;2.58;0.95;;;;;;;22.53;50.78;99458.47;5044451;28;20108;-61
2023/07/30 11:21:17;;;;;;;1.50;1.00;;;;;;;22.26;51.88;99456.91;5044684;28;20025;-61
2023/07/30 11:23:44;;;;;;;5.20;1.13;;;;;;;22.06;52.17;99453.06;5044360;28;20030;-62
2023/07/30 11:26:19;;;;;;;2.72;1.27;;;;;;;21.79;52.36;99450.50;5047180;28;20030;-61
2023/07/30 11:28:45;;;;;;;4.50;1.70;;;;;;;21.58;53.71;99446.69;5048248;28;20049;-61